sensor_id;sensor_type;location;lat;lon;timestamp;temperature;humidity
26954;DHT22;14508;50.924;11.600;2022-10-16T00:01:06;16.70;99.90
26954;DHT22;14508;50.924;11.600;2022-10-16T00:03:33;16.70;99.90
26954;DHT22;14508;50.924;11.600;2022-10-16T00:06:00;16.60;99.90
26954;DHT22;14508;50.924;11.600;2022-10-16T00:08:28;16.60;99.90
26954;DHT22;14508;50.924;11.600;2022-10-16T00:10:59;16.60;99.90
26954;DHT22;14508;50.924;11.600;2022-10-16T00:13:26;16.60;99.90
26954;DHT22;14508;50.924;11.600;2022-10-16T00:15:55;16.60;99.90
26954;DHT22;14508;50.924;11.600;2022-10-16T00:18:24;16.60;99.90
26954;DHT22;14508;50.924;11.600;2022-10-16T00:20:51;16.60;99.90
26954;DHT22;14508;50.924;11.600;2022-10-16T00:23:18;16.60;99.90
26954;DHT22;14508;50.924;11.600;2022-10-16T00:25:53;16.60;99.90
26954;DHT22;14508;50.924;11.600;2022-10-16T00:28:20;16.60;99.90
26954;DHT22;14508;50.924;11.600;2022-10-16T00:30:47;16.50;99.90
26954;DHT22;14508;50.924;11.600;2022-10-16T00:33:14;16.50;99.90
26954;DHT22;14508;50.924;11.600;2022-10-16T00:35:42;16.40;99.90
26954;DHT22;14508;50.924;11.600;2022-10-16T00:38:09;16.40;99.90
26954;DHT22;14508;50.924;11.600;2022-10-16T00:40:36;16.40;99.90
26954;DHT22;14508;50.924;11.600;2022-10-16T00:43:04;16.30;99.90
26954;DHT22;14508;50.924;11.600;2022-10-16T00:45:35;16.30;99.90
26954;DHT22;14508;50.924;11.600;2022-10-16T00:48:02;16.30;99.90
26954;DHT22;14508;50.924;11.600;2022-10-16T00:50:31;16.20;99.90
26954;DHT22;14508;50.924;11.600;2022-10-16T00:53:00;16.20;99.90
26954;DHT22;14508;50.924;11.600;2022-10-16T00:55:28;16.10;99.90
26954;DHT22;14508;50.924;11.600;2022-10-16T00:57:56;16.10;99.90
26954;DHT22;14508;50.924;11.600;2022-10-16T01:00:26;16.00;99.90
26954;DHT22;14508;50.924;11.600;2022-10-16T01:02:54;15.90;99.90
26954;DHT22;14508;50.924;11.600;2022-10-16T01:05:21;15.90;99.90
26954;DHT22;14508;50.924;11.600;2022-10-16T01:07:56;15.80;99.90
26954;DHT22;14508;50.924;11.600;2022-10-16T01:10:31;15.70;99.90
26954;DHT22;14508;50.924;11.600;2022-10-16T01:13:04;15.60;99.90
26954;DHT22;14508;50.924;11.600;2022-10-16T01:15:35;15.50;99.90
26954;DHT22;14508;50.924;11.600;2022-10-16T01:18:09;15.40;99.90
26954;DHT22;14508;50.924;11.600;2022-10-16T01:20:42;15.40;99.90
26954;DHT22;14508;50.924;11.600;2022-10-16T01:23:21;15.30;99.90
26954;DHT22;14508;50.924;11.600;2022-10-16T01:26:31;15.30;99.90
26954;DHT22;14508;50.924;11.600;2022-10-16T01:29:06;15.20;99.90
26954;DHT22;14508;50.924;11.600;2022-10-16T01:31:38;15.20;99.90
26954;DHT22;14508;50.924;11.600;2022-10-16T01:34:11;15.30;99.90
26954;DHT22;14508;50.924;11.600;2022-10-16T01:36:45;15.20;99.90
26954;DHT22;14508;50.924;11.600;2022-10-16T01:39:14;15.20;99.90
26954;DHT22;14508;50.924;11.600;2022-10-16T01:41:45;15.10;99.90
26954;DHT22;14508;50.924;11.600;2022-10-16T01:44:18;15.10;99.90
26954;DHT22;14508;50.924;11.600;2022-10-16T01:46:48;15.00;99.90
26954;DHT22;14508;50.924;11.600;2022-10-16T01:49:17;15.00;99.90
26954;DHT22;14508;50.924;11.600;2022-10-16T01:51:47;14.90;99.90
26954;DHT22;14508;50.924;11.600;2022-10-16T01:54:16;14.90;99.90
26954;DHT22;14508;50.924;11.600;2022-10-16T01:56:45;14.80;99.90
26954;DHT22;14508;50.924;11.600;2022-10-16T01:59:18;14.80;99.90
26954;DHT22;14508;50.924;11.600;2022-10-16T02:01:48;14.80;99.90
26954;DHT22;14508;50.924;11.600;2022-10-16T02:04:20;14.80;99.90
26954;DHT22;14508;50.924;11.600;2022-10-16T02:06:48;14.80;99.90
26954;DHT22;14508;50.924;11.600;2022-10-16T02:09:15;14.80;99.90
26954;DHT22;14508;50.924;11.600;2022-10-16T02:11:42;14.70;99.90
26954;DHT22;14508;50.924;11.600;2022-10-16T02:14:09;14.70;99.90
26954;DHT22;14508;50.924;11.600;2022-10-16T02:16:39;14.60;99.90
26954;DHT22;14508;50.924;11.600;2022-10-16T02:19:07;14.60;99.90
26954;DHT22;14508;50.924;11.600;2022-10-16T02:21:40;14.50;99.90
26954;DHT22;14508;50.924;11.600;2022-10-16T02:24:13;14.50;99.90
26954;DHT22;14508;50.924;11.600;2022-10-16T02:26:50;14.40;99.90
26954;DHT22;14508;50.924;11.600;2022-10-16T02:29:23;14.30;99.90
26954;DHT22;14508;50.924;11.600;2022-10-16T02:31:56;14.30;99.90
26954;DHT22;14508;50.924;11.600;2022-10-16T02:34:25;14.30;99.90
26954;DHT22;14508;50.924;11.600;2022-10-16T02:36:54;14.20;99.90
26954;DHT22;14508;50.924;11.600;2022-10-16T02:39:21;14.10;99.90
26954;DHT22;14508;50.924;11.600;2022-10-16T02:41:48;14.10;99.90
26954;DHT22;14508;50.924;11.600;2022-10-16T02:44:15;14.10;99.90
26954;DHT22;14508;50.924;11.600;2022-10-16T02:46:42;14.00;99.90
26954;DHT22;14508;50.924;11.600;2022-10-16T02:49:10;14.10;99.90
26954;DHT22;14508;50.924;11.600;2022-10-16T02:51:37;14.10;99.90
26954;DHT22;14508;50.924;11.600;2022-10-16T02:54:04;14.20;99.90
26954;DHT22;14508;50.924;11.600;2022-10-16T02:56:31;14.20;99.90
26954;DHT22;14508;50.924;11.600;2022-10-16T02:58:58;14.20;99.90
26954;DHT22;14508;50.924;11.600;2022-10-16T03:01:24;14.30;99.90
26954;DHT22;14508;50.924;11.600;2022-10-16T03:03:51;14.30;99.90
26954;DHT22;14508;50.924;11.600;2022-10-16T03:06:20;14.30;99.90
26954;DHT22;14508;50.924;11.600;2022-10-16T03:08:47;14.20;99.90
26954;DHT22;14508;50.924;11.600;2022-10-16T03:11:13;14.20;99.90
26954;DHT22;14508;50.924;11.600;2022-10-16T03:13:40;14.20;99.90
26954;DHT22;14508;50.924;11.600;2022-10-16T03:16:07;14.20;99.90
26954;DHT22;14508;50.924;11.600;2022-10-16T03:18:34;14.20;99.90
26954;DHT22;14508;50.924;11.600;2022-10-16T03:21:01;14.20;99.90
26954;DHT22;14508;50.924;11.600;2022-10-16T03:23:29;14.20;99.90
26954;DHT22;14508;50.924;11.600;2022-10-16T03:25:56;14.20;99.90
26954;DHT22;14508;50.924;11.600;2022-10-16T03:28:23;14.20;99.90
26954;DHT22;14508;50.924;11.600;2022-10-16T03:30:50;14.10;99.90
26954;DHT22;14508;50.924;11.600;2022-10-16T03:33:17;14.10;99.90
26954;DHT22;14508;50.924;11.600;2022-10-16T03:35:51;14.10;99.90
26954;DHT22;14508;50.924;11.600;2022-10-16T03:38:18;14.10;99.90
26954;DHT22;14508;50.924;11.600;2022-10-16T03:40:46;14.10;99.90
26954;DHT22;14508;50.924;11.600;2022-10-16T03:43:13;14.10;99.90
26954;DHT22;14508;50.924;11.600;2022-10-16T03:45:40;14.10;99.90
26954;DHT22;14508;50.924;11.600;2022-10-16T03:48:07;14.00;99.90
26954;DHT22;14508;50.924;11.600;2022-10-16T03:50:34;14.00;99.90
26954;DHT22;14508;50.924;11.600;2022-10-16T03:53:01;14.00;99.90
26954;DHT22;14508;50.924;11.600;2022-10-16T03:55:28;14.00;99.90
26954;DHT22;14508;50.924;11.600;2022-10-16T03:57:56;13.90;99.90
26954;DHT22;14508;50.924;11.600;2022-10-16T04:00:23;13.90;99.90
26954;DHT22;14508;50.924;11.600;2022-10-16T04:02:50;13.90;99.90
26954;DHT22;14508;50.924;11.600;2022-10-16T04:05:16;13.80;99.90
26954;DHT22;14508;50.924;11.600;2022-10-16T04:07:43;13.80;99.90
26954;DHT22;14508;50.924;11.600;2022-10-16T04:10:10;13.80;99.90
26954;DHT22;14508;50.924;11.600;2022-10-16T04:12:37;13.80;99.90
26954;DHT22;14508;50.924;11.600;2022-10-16T04:15:06;13.80;99.90
26954;DHT22;14508;50.924;11.600;2022-10-16T04:17:33;13.70;99.90
26954;DHT22;14508;50.924;11.600;2022-10-16T04:20:00;13.70;99.90
26954;DHT22;14508;50.924;11.600;2022-10-16T04:22:27;13.70;99.90
26954;DHT22;14508;50.924;11.600;2022-10-16T04:24:53;13.80;99.90
26954;DHT22;14508;50.924;11.600;2022-10-16T04:27:20;13.80;99.90
26954;DHT22;14508;50.924;11.600;2022-10-16T04:29:47;13.80;99.90
26954;DHT22;14508;50.924;11.600;2022-10-16T04:32:15;13.80;99.90
26954;DHT22;14508;50.924;11.600;2022-10-16T04:34:42;13.80;99.90
26954;DHT22;14508;50.924;11.600;2022-10-16T04:37:09;13.80;99.90
26954;DHT22;14508;50.924;11.600;2022-10-16T04:39:36;13.90;99.90
26954;DHT22;14508;50.924;11.600;2022-10-16T04:42:03;13.90;99.90
26954;DHT22;14508;50.924;11.600;2022-10-16T04:44:29;13.80;99.90
26954;DHT22;14508;50.924;11.600;2022-10-16T04:46:56;13.90;99.90
26954;DHT22;14508;50.924;11.600;2022-10-16T04:49:24;13.90;99.90
26954;DHT22;14508;50.924;11.600;2022-10-16T04:51:51;13.90;99.90
26954;DHT22;14508;50.924;11.600;2022-10-16T04:54:18;13.90;99.90
26954;DHT22;14508;50.924;11.600;2022-10-16T04:56:45;14.00;99.90
26954;DHT22;14508;50.924;11.600;2022-10-16T04:59:13;14.00;99.90
26954;DHT22;14508;50.924;11.600;2022-10-16T05:01:40;14.00;99.90
26954;DHT22;14508;50.924;11.600;2022-10-16T05:04:07;14.10;99.90
26954;DHT22;14508;50.924;11.600;2022-10-16T05:06:36;14.10;99.90
26954;DHT22;14508;50.924;11.600;2022-10-16T05:09:04;14.10;99.90
26954;DHT22;14508;50.924;11.600;2022-10-16T05:11:31;14.10;99.90
26954;DHT22;14508;50.924;11.600;2022-10-16T05:13:58;14.10;99.90
26954;DHT22;14508;50.924;11.600;2022-10-16T05:16:25;14.10;99.90
26954;DHT22;14508;50.924;11.600;2022-10-16T05:18:52;14.10;99.90
26954;DHT22;14508;50.924;11.600;2022-10-16T05:21:19;14.10;99.90
26954;DHT22;14508;50.924;11.600;2022-10-16T05:23:48;14.10;99.90
26954;DHT22;14508;50.924;11.600;2022-10-16T05:26:15;14.10;99.90
26954;DHT22;14508;50.924;11.600;2022-10-16T05:28:41;14.10;99.90
26954;DHT22;14508;50.924;11.600;2022-10-16T05:31:09;14.10;99.90
26954;DHT22;14508;50.924;11.600;2022-10-16T05:33:36;14.10;99.90
26954;DHT22;14508;50.924;11.600;2022-10-16T05:36:04;14.10;99.90
26954;DHT22;14508;50.924;11.600;2022-10-16T05:38:33;14.10;99.90
26954;DHT22;14508;50.924;11.600;2022-10-16T05:41:01;14.10;99.90
26954;DHT22;14508;50.924;11.600;2022-10-16T05:43:28;14.10;99.90
26954;DHT22;14508;50.924;11.600;2022-10-16T05:45:56;14.00;99.90
26954;DHT22;14508;50.924;11.600;2022-10-16T05:48:23;14.10;99.90
26954;DHT22;14508;50.924;11.600;2022-10-16T05:50:56;14.00;99.90
26954;DHT22;14508;50.924;11.600;2022-10-16T05:53:23;14.00;99.90
26954;DHT22;14508;50.924;11.600;2022-10-16T05:55:54;14.10;99.90
26954;DHT22;14508;50.924;11.600;2022-10-16T05:58:23;14.10;99.90
26954;DHT22;14508;50.924;11.600;2022-10-16T06:00:54;14.10;99.90
26954;DHT22;14508;50.924;11.600;2022-10-16T06:03:22;14.10;99.90
26954;DHT22;14508;50.924;11.600;2022-10-16T06:05:49;14.20;99.90
26954;DHT22;14508;50.924;11.600;2022-10-16T06:08:16;14.30;99.90
26954;DHT22;14508;50.924;11.600;2022-10-16T06:10:44;14.30;99.90
26954;DHT22;14508;50.924;11.600;2022-10-16T06:13:11;14.30;99.90
26954;DHT22;14508;50.924;11.600;2022-10-16T06:15:39;14.40;99.90
26954;DHT22;14508;50.924;11.600;2022-10-16T06:18:07;14.50;99.90
26954;DHT22;14508;50.924;11.600;2022-10-16T06:20:34;14.50;99.90
26954;DHT22;14508;50.924;11.600;2022-10-16T06:23:01;14.60;99.90
26954;DHT22;14508;50.924;11.600;2022-10-16T06:25:29;14.60;99.90
26954;DHT22;14508;50.924;11.600;2022-10-16T06:27:56;14.70;99.90
26954;DHT22;14508;50.924;11.600;2022-10-16T06:30:23;14.80;99.90
26954;DHT22;14508;50.924;11.600;2022-10-16T06:32:52;14.90;99.90
26954;DHT22;14508;50.924;11.600;2022-10-16T06:35:19;15.10;99.90
26954;DHT22;14508;50.924;11.600;2022-10-16T06:37:45;15.20;99.90
26954;DHT22;14508;50.924;11.600;2022-10-16T06:40:13;15.30;99.90
26954;DHT22;14508;50.924;11.600;2022-10-16T06:42:40;15.40;99.90
26954;DHT22;14508;50.924;11.600;2022-10-16T06:45:08;15.60;99.90
26954;DHT22;14508;50.924;11.600;2022-10-16T06:47:35;15.70;99.90
26954;DHT22;14508;50.924;11.600;2022-10-16T06:50:03;15.80;99.90
26954;DHT22;14508;50.924;11.600;2022-10-16T06:52:32;15.80;99.90
26954;DHT22;14508;50.924;11.600;2022-10-16T06:54:59;15.90;99.90
26954;DHT22;14508;50.924;11.600;2022-10-16T06:57:26;15.90;99.90
26954;DHT22;14508;50.924;11.600;2022-10-16T06:59:53;16.00;99.90
26954;DHT22;14508;50.924;11.600;2022-10-16T07:02:19;16.00;99.90
26954;DHT22;14508;50.924;11.600;2022-10-16T07:04:46;16.10;99.90
26954;DHT22;14508;50.924;11.600;2022-10-16T07:07:15;16.10;99.90
26954;DHT22;14508;50.924;11.600;2022-10-16T07:09:42;16.30;99.90
26954;DHT22;14508;50.924;11.600;2022-10-16T07:12:08;16.30;99.90
26954;DHT22;14508;50.924;11.600;2022-10-16T07:14:35;16.40;99.90
26954;DHT22;14508;50.924;11.600;2022-10-16T07:17:02;16.40;99.90
26954;DHT22;14508;50.924;11.600;2022-10-16T07:19:29;16.50;99.90
26954;DHT22;14508;50.924;11.600;2022-10-16T07:21:56;16.40;99.90
26954;DHT22;14508;50.924;11.600;2022-10-16T07:24:24;16.40;99.90
26954;DHT22;14508;50.924;11.600;2022-10-16T07:26:51;16.40;99.90
26954;DHT22;14508;50.924;11.600;2022-10-16T07:29:20;16.40;99.90
26954;DHT22;14508;50.924;11.600;2022-10-16T07:31:48;16.40;99.90
26954;DHT22;14508;50.924;11.600;2022-10-16T07:34:17;16.50;99.90
26954;DHT22;14508;50.924;11.600;2022-10-16T07:36:46;16.60;99.90
26954;DHT22;14508;50.924;11.600;2022-10-16T07:39:13;16.70;99.90
26954;DHT22;14508;50.924;11.600;2022-10-16T07:41:41;16.80;99.90
26954;DHT22;14508;50.924;11.600;2022-10-16T07:44:08;16.90;99.90
26954;DHT22;14508;50.924;11.600;2022-10-16T07:46:35;17.00;99.90
26954;DHT22;14508;50.924;11.600;2022-10-16T07:49:02;17.10;99.90
26954;DHT22;14508;50.924;11.600;2022-10-16T07:51:29;17.10;99.90
26954;DHT22;14508;50.924;11.600;2022-10-16T07:53:56;17.20;99.90
26954;DHT22;14508;50.924;11.600;2022-10-16T07:56:23;17.30;99.90
26954;DHT22;14508;50.924;11.600;2022-10-16T07:58:52;17.40;99.90
26954;DHT22;14508;50.924;11.600;2022-10-16T08:01:19;17.40;99.90
26954;DHT22;14508;50.924;11.600;2022-10-16T08:03:48;17.40;99.90
26954;DHT22;14508;50.924;11.600;2022-10-16T08:06:15;17.40;99.90
26954;DHT22;14508;50.924;11.600;2022-10-16T08:08:42;17.50;99.90
26954;DHT22;14508;50.924;11.600;2022-10-16T08:11:10;17.50;99.90
26954;DHT22;14508;50.924;11.600;2022-10-16T08:13:37;17.60;99.90
26954;DHT22;14508;50.924;11.600;2022-10-16T08:16:06;17.70;99.90
26954;DHT22;14508;50.924;11.600;2022-10-16T08:18:34;17.80;99.90
26954;DHT22;14508;50.924;11.600;2022-10-16T08:21:02;17.90;99.90
26954;DHT22;14508;50.924;11.600;2022-10-16T08:23:30;18.00;99.90
26954;DHT22;14508;50.924;11.600;2022-10-16T08:26:02;18.10;99.90
26954;DHT22;14508;50.924;11.600;2022-10-16T08:28:29;18.10;99.90
26954;DHT22;14508;50.924;11.600;2022-10-16T08:30:56;18.20;99.90
26954;DHT22;14508;50.924;11.600;2022-10-16T08:33:32;18.20;99.90
26954;DHT22;14508;50.924;11.600;2022-10-16T08:36:00;18.20;99.90
26954;DHT22;14508;50.924;11.600;2022-10-16T08:38:27;18.10;99.90
26954;DHT22;14508;50.924;11.600;2022-10-16T08:41:13;18.20;99.90
26954;DHT22;14508;50.924;11.600;2022-10-16T08:43:54;18.10;99.90
26954;DHT22;14508;50.924;11.600;2022-10-16T08:46:36;18.20;99.90
26954;DHT22;14508;50.924;11.600;2022-10-16T08:49:11;18.20;99.90
26954;DHT22;14508;50.924;11.600;2022-10-16T08:51:39;18.30;99.90
26954;DHT22;14508;50.924;11.600;2022-10-16T08:54:26;18.30;99.90
26954;DHT22;14508;50.924;11.600;2022-10-16T08:56:55;18.40;99.90
26954;DHT22;14508;50.924;11.600;2022-10-16T08:59:22;18.40;99.90
26954;DHT22;14508;50.924;11.600;2022-10-16T09:01:50;18.40;99.90
26954;DHT22;14508;50.924;11.600;2022-10-16T09:04:52;18.40;99.90
26954;DHT22;14508;50.924;11.600;2022-10-16T09:07:25;18.40;99.90
26954;DHT22;14508;50.924;11.600;2022-10-16T09:10:22;18.40;99.90
26954;DHT22;14508;50.924;11.600;2022-10-16T09:12:55;18.50;99.90
26954;DHT22;14508;50.924;11.600;2022-10-16T09:15:28;18.70;99.90
26954;DHT22;14508;50.924;11.600;2022-10-16T09:18:01;18.80;99.90
26954;DHT22;14508;50.924;11.600;2022-10-16T09:20:49;18.80;99.90
26954;DHT22;14508;50.924;11.600;2022-10-16T09:23:18;18.80;99.90
26954;DHT22;14508;50.924;11.600;2022-10-16T09:25:47;18.70;99.90
26954;DHT22;14508;50.924;11.600;2022-10-16T09:28:15;18.80;99.90
26954;DHT22;14508;50.924;11.600;2022-10-16T09:30:42;18.80;99.90
26954;DHT22;14508;50.924;11.600;2022-10-16T09:33:11;18.80;99.90
26954;DHT22;14508;50.924;11.600;2022-10-16T09:35:40;18.90;99.90
26954;DHT22;14508;50.924;11.600;2022-10-16T09:38:09;18.90;99.90
26954;DHT22;14508;50.924;11.600;2022-10-16T09:40:47;19.00;99.90
26954;DHT22;14508;50.924;11.600;2022-10-16T09:43:21;19.20;99.90
26954;DHT22;14508;50.924;11.600;2022-10-16T09:45:57;19.30;99.90
26954;DHT22;14508;50.924;11.600;2022-10-16T09:48:27;19.40;99.90
26954;DHT22;14508;50.924;11.600;2022-10-16T09:50:56;19.60;99.90
26954;DHT22;14508;50.924;11.600;2022-10-16T09:53:40;19.60;99.90
26954;DHT22;14508;50.924;11.600;2022-10-16T09:56:10;19.70;99.90
26954;DHT22;14508;50.924;11.600;2022-10-16T09:58:42;19.80;99.90
26954;DHT22;14508;50.924;11.600;2022-10-16T10:01:13;19.90;99.90
26954;DHT22;14508;50.924;11.600;2022-10-16T10:03:41;19.90;99.90
26954;DHT22;14508;50.924;11.600;2022-10-16T10:06:18;19.90;99.90
26954;DHT22;14508;50.924;11.600;2022-10-16T10:09:03;19.90;99.90
26954;DHT22;14508;50.924;11.600;2022-10-16T10:11:38;19.80;99.90
26954;DHT22;14508;50.924;11.600;2022-10-16T10:14:05;19.80;99.90
26954;DHT22;14508;50.924;11.600;2022-10-16T10:16:32;19.80;99.90
26954;DHT22;14508;50.924;11.600;2022-10-16T10:19:00;19.80;99.90
26954;DHT22;14508;50.924;11.600;2022-10-16T10:21:27;19.90;99.90
26954;DHT22;14508;50.924;11.600;2022-10-16T10:23:57;19.80;99.90
26954;DHT22;14508;50.924;11.600;2022-10-16T10:26:28;19.90;99.90
26954;DHT22;14508;50.924;11.600;2022-10-16T10:29:02;19.90;99.90
26954;DHT22;14508;50.924;11.600;2022-10-16T10:31:36;20.10;99.90
26954;DHT22;14508;50.924;11.600;2022-10-16T10:34:16;20.20;99.90
26954;DHT22;14508;50.924;11.600;2022-10-16T10:36:49;20.40;99.90
26954;DHT22;14508;50.924;11.600;2022-10-16T10:39:24;20.70;99.90
26954;DHT22;14508;50.924;11.600;2022-10-16T10:42:16;20.90;99.90
26954;DHT22;14508;50.924;11.600;2022-10-16T10:44:58;21.10;99.90
26954;DHT22;14508;50.924;11.600;2022-10-16T10:47:36;21.20;99.90
26954;DHT22;14508;50.924;11.600;2022-10-16T10:50:12;21.20;99.90
26954;DHT22;14508;50.924;11.600;2022-10-16T10:52:52;21.20;99.90
26954;DHT22;14508;50.924;11.600;2022-10-16T10:55:23;21.20;99.90
26954;DHT22;14508;50.924;11.600;2022-10-16T11:00:53;21.00;99.90
26954;DHT22;14508;50.924;11.600;2022-10-16T11:03:56;21.00;99.90
26954;DHT22;14508;50.924;11.600;2022-10-16T11:06:30;21.00;99.90
26954;DHT22;14508;50.924;11.600;2022-10-16T11:09:02;20.90;99.90
26954;DHT22;14508;50.924;11.600;2022-10-16T11:11:37;20.90;99.90
26954;DHT22;14508;50.924;11.600;2022-10-16T11:14:14;20.80;99.90
26954;DHT22;14508;50.924;11.600;2022-10-16T11:16:45;20.80;99.90
26954;DHT22;14508;50.924;11.600;2022-10-16T11:19:35;20.70;99.90
26954;DHT22;14508;50.924;11.600;2022-10-16T11:22:07;20.60;99.90
26954;DHT22;14508;50.924;11.600;2022-10-16T11:24:42;20.50;99.90
26954;DHT22;14508;50.924;11.600;2022-10-16T11:27:15;20.50;99.90
26954;DHT22;14508;50.924;11.600;2022-10-16T11:29:49;20.50;99.90
26954;DHT22;14508;50.924;11.600;2022-10-16T11:32:22;20.50;99.90
26954;DHT22;14508;50.924;11.600;2022-10-16T11:34:52;20.50;99.90
26954;DHT22;14508;50.924;11.600;2022-10-16T11:37:24;20.50;99.90
26954;DHT22;14508;50.924;11.600;2022-10-16T11:39:57;20.50;99.90
26954;DHT22;14508;50.924;11.600;2022-10-16T11:42:30;20.50;99.90
26954;DHT22;14508;50.924;11.600;2022-10-16T11:45:08;20.70;99.90
26954;DHT22;14508;50.924;11.600;2022-10-16T11:47:43;20.80;99.90
26954;DHT22;14508;50.924;11.600;2022-10-16T11:50:20;20.80;99.90
26954;DHT22;14508;50.924;11.600;2022-10-16T11:52:53;20.80;99.90
26954;DHT22;14508;50.924;11.600;2022-10-16T11:55:26;20.90;99.90
26954;DHT22;14508;50.924;11.600;2022-10-16T11:57:59;20.90;99.90
26954;DHT22;14508;50.924;11.600;2022-10-16T12:00:33;20.90;99.90
26954;DHT22;14508;50.924;11.600;2022-10-16T12:03:08;20.90;99.90
26954;DHT22;14508;50.924;11.600;2022-10-16T12:05:52;21.00;99.90
26954;DHT22;14508;50.924;11.600;2022-10-16T12:08:22;21.00;99.90
26954;DHT22;14508;50.924;11.600;2022-10-16T12:10:51;21.10;99.90
26954;DHT22;14508;50.924;11.600;2022-10-16T12:13:29;21.10;99.90
26954;DHT22;14508;50.924;11.600;2022-10-16T12:16:06;21.20;99.90
26954;DHT22;14508;50.924;11.600;2022-10-16T12:18:34;21.20;99.90
26954;DHT22;14508;50.924;11.600;2022-10-16T12:21:00;21.30;99.90
26954;DHT22;14508;50.924;11.600;2022-10-16T12:23:32;21.30;99.90
26954;DHT22;14508;50.924;11.600;2022-10-16T12:26:00;21.30;99.90
26954;DHT22;14508;50.924;11.600;2022-10-16T12:28:29;21.30;99.90
26954;DHT22;14508;50.924;11.600;2022-10-16T12:31:00;21.60;99.90
26954;DHT22;14508;50.924;11.600;2022-10-16T12:33:30;21.80;99.90
26954;DHT22;14508;50.924;11.600;2022-10-16T12:36:00;22.10;99.90
26954;DHT22;14508;50.924;11.600;2022-10-16T12:38:28;22.20;99.90
26954;DHT22;14508;50.924;11.600;2022-10-16T12:41:00;22.30;99.90
26954;DHT22;14508;50.924;11.600;2022-10-16T12:43:36;22.20;99.90
26954;DHT22;14508;50.924;11.600;2022-10-16T12:46:19;22.20;99.90
26954;DHT22;14508;50.924;11.600;2022-10-16T12:48:49;22.10;99.90
26954;DHT22;14508;50.924;11.600;2022-10-16T12:51:23;22.00;99.90
26954;DHT22;14508;50.924;11.600;2022-10-16T12:53:58;22.00;99.90
26954;DHT22;14508;50.924;11.600;2022-10-16T12:56:33;21.90;99.90
26954;DHT22;14508;50.924;11.600;2022-10-16T12:59:11;21.90;99.90
26954;DHT22;14508;50.924;11.600;2022-10-16T13:01:54;21.80;99.90
26954;DHT22;14508;50.924;11.600;2022-10-16T13:04:38;21.80;99.90
26954;DHT22;14508;50.924;11.600;2022-10-16T13:07:23;21.70;99.90
26954;DHT22;14508;50.924;11.600;2022-10-16T13:09:58;21.60;99.90
26954;DHT22;14508;50.924;11.600;2022-10-16T13:12:40;21.60;99.90
26954;DHT22;14508;50.924;11.600;2022-10-16T13:15:22;21.60;99.90
26954;DHT22;14508;50.924;11.600;2022-10-16T13:17:59;21.60;99.90
26954;DHT22;14508;50.924;11.600;2022-10-16T13:20:35;21.60;99.90
26954;DHT22;14508;50.924;11.600;2022-10-16T13:23:14;21.70;99.90
26954;DHT22;14508;50.924;11.600;2022-10-16T13:25:55;21.90;99.90
26954;DHT22;14508;50.924;11.600;2022-10-16T13:28:28;22.10;99.90
26954;DHT22;14508;50.924;11.600;2022-10-16T13:30:57;22.30;99.50
26954;DHT22;14508;50.924;11.600;2022-10-16T13:33:31;22.50;98.80
26954;DHT22;14508;50.924;11.600;2022-10-16T13:36:01;22.70;98.10
26954;DHT22;14508;50.924;11.600;2022-10-16T13:38:31;22.90;97.70
26954;DHT22;14508;50.924;11.600;2022-10-16T13:41:00;23.10;95.90
26954;DHT22;14508;50.924;11.600;2022-10-16T13:43:31;23.20;94.90
26954;DHT22;14508;50.924;11.600;2022-10-16T13:46:01;23.30;94.00
26954;DHT22;14508;50.924;11.600;2022-10-16T13:48:28;23.20;92.40
26954;DHT22;14508;50.924;11.600;2022-10-16T13:51:06;23.00;90.70
26954;DHT22;14508;50.924;11.600;2022-10-16T13:53:34;22.80;91.20
26954;DHT22;14508;50.924;11.600;2022-10-16T13:56:03;22.70;91.70
26954;DHT22;14508;50.924;11.600;2022-10-16T13:58:31;22.60;91.30
26954;DHT22;14508;50.924;11.600;2022-10-16T14:01:00;22.50;91.00
26954;DHT22;14508;50.924;11.600;2022-10-16T14:03:28;22.50;91.00
26954;DHT22;14508;50.924;11.600;2022-10-16T14:05:59;22.50;90.80
26954;DHT22;14508;50.924;11.600;2022-10-16T14:08:29;22.50;90.70
26954;DHT22;14508;50.924;11.600;2022-10-16T14:10:58;22.50;90.60
26954;DHT22;14508;50.924;11.600;2022-10-16T14:13:30;22.60;90.70
26954;DHT22;14508;50.924;11.600;2022-10-16T14:16:02;22.60;90.60
26954;DHT22;14508;50.924;11.600;2022-10-16T14:18:29;22.60;90.60
26954;DHT22;14508;50.924;11.600;2022-10-16T14:21:03;22.60;90.80
26954;DHT22;14508;50.924;11.600;2022-10-16T14:23:35;22.50;91.10
26954;DHT22;14508;50.924;11.600;2022-10-16T14:26:16;22.40;91.30
26954;DHT22;14508;50.924;11.600;2022-10-16T14:28:45;22.30;91.70
26954;DHT22;14508;50.924;11.600;2022-10-16T14:31:27;22.20;92.20
26954;DHT22;14508;50.924;11.600;2022-10-16T14:33:55;22.00;92.40
26954;DHT22;14508;50.924;11.600;2022-10-16T14:36:22;22.00;92.90
26954;DHT22;14508;50.924;11.600;2022-10-16T14:38:57;22.10;93.30
26954;DHT22;14508;50.924;11.600;2022-10-16T14:41:26;22.10;93.50
26954;DHT22;14508;50.924;11.600;2022-10-16T14:43:54;22.00;93.70
26954;DHT22;14508;50.924;11.600;2022-10-16T14:46:28;22.00;94.00
26954;DHT22;14508;50.924;11.600;2022-10-16T14:49:01;21.90;94.00
26954;DHT22;14508;50.924;11.600;2022-10-16T14:51:29;21.80;94.50
26954;DHT22;14508;50.924;11.600;2022-10-16T14:53:57;21.80;95.10
26954;DHT22;14508;50.924;11.600;2022-10-16T14:56:26;21.80;95.80
26954;DHT22;14508;50.924;11.600;2022-10-16T14:58:55;21.80;96.30
26954;DHT22;14508;50.924;11.600;2022-10-16T15:01:22;21.80;97.00
26954;DHT22;14508;50.924;11.600;2022-10-16T15:03:49;21.80;97.40
26954;DHT22;14508;50.924;11.600;2022-10-16T15:06:17;21.80;98.90
26954;DHT22;14508;50.924;11.600;2022-10-16T15:08:44;21.80;99.80
26954;DHT22;14508;50.924;11.600;2022-10-16T15:11:15;21.90;99.90
26954;DHT22;14508;50.924;11.600;2022-10-16T15:13:42;21.80;99.90
26954;DHT22;14508;50.924;11.600;2022-10-16T15:16:11;21.80;99.90
26954;DHT22;14508;50.924;11.600;2022-10-16T15:18:38;21.70;99.10
26954;DHT22;14508;50.924;11.600;2022-10-16T15:21:05;21.70;98.70
26954;DHT22;14508;50.924;11.600;2022-10-16T15:23:32;21.60;98.40
26954;DHT22;14508;50.924;11.600;2022-10-16T15:25:59;21.50;98.30
26954;DHT22;14508;50.924;11.600;2022-10-16T15:28:28;21.40;98.40
26954;DHT22;14508;50.924;11.600;2022-10-16T15:30:56;21.30;98.40
26954;DHT22;14508;50.924;11.600;2022-10-16T15:33:24;21.20;98.50
26954;DHT22;14508;50.924;11.600;2022-10-16T15:35:53;21.20;98.70
26954;DHT22;14508;50.924;11.600;2022-10-16T15:38:21;21.10;99.20